FRR weather

Front Royal Warren County Airport
Front Royal, Virginia, United States

Public forecast

Using degrees Fahrenheit for public forecast. Weather courtesy of forecast.io.

Current aviation weather report (METAR) for Front Royal Warren County Airport

Retrieved 2019/12/12 15:35 UTC (3 minutes ago):

KFRR 121535Z AUTO 00000KT 10SM CLR 00/M07 A3070 RMK AO1

Closest aviation forecast (TAF) to Front Royal Warren County Airport

Closest forecast is Eastern WV Regional Airport/Shepherd Field, 31.7 nm (58.6 km) NNE. Retrieved 2019/12/12 12:22 UTC (3 hours ago):

TAF KMRB 121120Z 1212/1312 VRB05KT P6SM FEW250 FM130700 VRB03KT P6SM BKN200 FM131100 00000KT P6SM BKN120